createdAt,value
2023-05-20T00:04:40.924Z,12.1
2023-05-20T00:14:42.019Z,12.1
2023-05-20T00:24:43.118Z,12.1
2023-05-20T00:34:45.141Z,11.9
2023-05-20T00:44:46.878Z,11.9
2023-05-20T01:04:50.253Z,11.6
2023-05-20T01:24:53.596Z,11.4
2023-05-20T01:34:55.526Z,11
2023-05-20T01:44:56.721Z,10.8
2023-05-20T01:54:58.266Z,10.7
2023-05-20T02:04:59.558Z,10.6
2023-05-20T02:15:00.976Z,10.7
2023-05-20T02:25:02.612Z,10.7
2023-05-20T02:35:04.439Z,10.7
2023-05-20T02:45:06.514Z,10.6
2023-05-20T02:55:07.706Z,10.6
2023-05-20T03:05:09.549Z,10.6
2023-05-20T03:15:11.320Z,10.5
2023-05-20T03:25:13.279Z,10.4
2023-05-20T03:35:15.048Z,10.4
2023-05-20T03:45:16.983Z,10.3
2023-05-20T03:55:18.169Z,10.5
2023-05-20T04:05:19.740Z,10.6
2023-05-20T04:15:20.905Z,10.8
2023-05-20T04:25:22.951Z,11
2023-05-20T04:35:24.147Z,11.3
2023-05-20T04:45:26.088Z,12.1
2023-05-20T04:55:28.089Z,12.4
2023-05-20T05:05:29.326Z,12.8
2023-05-20T05:15:30.607Z,13.1
2023-05-20T05:25:32.754Z,13.4
2023-05-20T05:35:34.551Z,13.7
2023-05-20T05:45:35.753Z,13.9
2023-05-20T05:55:36.917Z,14.1
2023-05-20T06:05:38.311Z,14.3
2023-05-20T06:15:39.813Z,14.5
2023-05-20T06:25:41.205Z,14.8
2023-05-20T06:45:44.245Z,15.4
2023-05-20T06:55:45.934Z,15.3
2023-05-20T07:05:47.409Z,14.4
2023-05-20T07:15:48.620Z,14.2
2023-05-20T07:25:50.255Z,14
2023-05-20T07:35:51.487Z,13.8
2023-05-20T07:45:53.030Z,13.8
2023-05-20T07:55:54.984Z,13.7
2023-05-20T08:05:56.539Z,13.7
2023-05-20T08:15:57.613Z,14
2023-05-20T08:25:59.394Z,14.3
2023-05-20T08:36:01.336Z,14.6
2023-05-20T08:46:02.611Z,14.4
2023-05-20T08:56:04.179Z,14.6
2023-05-20T09:06:06.186Z,14.4
2023-05-20T09:16:07.656Z,14.3
2023-05-20T09:26:08.676Z,14.4
2023-05-20T09:36:10.226Z,14.8
2023-05-20T09:46:11.409Z,15
2023-05-20T09:56:12.902Z,15
2023-05-20T10:06:14.879Z,15.2
2023-05-20T10:16:16.730Z,15.6
2023-05-20T10:26:18.691Z,16
2023-05-20T10:36:20.121Z,16.4
2023-05-20T10:46:32.888Z,16.9
2023-05-20T10:56:23.425Z,17.4
2023-05-20T11:06:24.531Z,17.6
2023-05-20T11:16:26.056Z,17.9
2023-05-20T11:26:27.553Z,17.4
2023-05-20T11:36:28.696Z,17.8
2023-05-20T11:46:30.060Z,18.2
2023-05-20T11:56:31.843Z,18.7
2023-05-20T12:06:33.314Z,18.9
2023-05-20T12:16:34.438Z,18.7
2023-05-20T12:26:35.632Z,19
2023-05-20T12:36:36.592Z,19.1
2023-05-20T12:46:38.596Z,19
2023-05-20T12:56:40.115Z,18.6
2023-05-20T13:16:42.846Z,18.9
2023-05-20T13:26:44.217Z,19
2023-05-20T13:36:45.620Z,18.7
2023-05-20T13:46:46.914Z,18.5
2023-05-20T13:56:48.875Z,18.5
2023-05-20T14:06:50.433Z,18.7
2023-05-20T14:16:52.379Z,18.5
2023-05-20T14:26:53.763Z,18.3
2023-05-20T14:36:55.238Z,18.2
2023-05-20T14:46:57.133Z,18.6
2023-05-20T14:56:58.302Z,19.1
2023-05-20T15:07:00.350Z,18.4
2023-05-20T15:17:02.445Z,18.1
2023-05-20T15:27:04.185Z,17.9
2023-05-20T15:37:05.573Z,18
2023-05-20T15:47:06.943Z,17.8
2023-05-20T15:57:08.531Z,17.5
2023-05-20T16:07:10.228Z,17.4
2023-05-20T16:17:11.349Z,17.4
2023-05-20T16:27:13.162Z,17.3
2023-05-20T16:37:14.844Z,17.2
2023-05-20T16:47:16.230Z,17.1
2023-05-20T16:57:17.736Z,17
2023-05-20T17:07:19.026Z,16.9
2023-05-20T17:17:20.860Z,16.8
2023-05-20T17:27:22.191Z,16.8
2023-05-20T17:37:24.057Z,16.7
2023-05-20T17:47:25.539Z,16.6
2023-05-20T17:57:27.142Z,16.6
2023-05-20T18:07:28.654Z,16.5
2023-05-20T18:17:30.069Z,16.5
2023-05-20T18:27:31.449Z,16.4
2023-05-20T18:37:33.016Z,16.2
2023-05-20T18:47:34.576Z,16.1
2023-05-20T18:57:36.527Z,16
2023-05-20T19:07:38.078Z,15.9
2023-05-20T19:37:42.484Z,15.6
2023-05-20T19:38:26.247Z,15.6
2023-05-20T19:47:51.176Z,15.5
2023-05-20T19:57:53.196Z,15.5
2023-05-20T20:07:54.486Z,15.4
2023-05-20T20:17:55.826Z,15.3
2023-05-20T20:27:57.182Z,15.3
2023-05-20T20:37:58.423Z,15.2
2023-05-20T20:48:00.363Z,15.1
2023-05-20T20:58:01.557Z,15
2023-05-20T21:08:02.722Z,14.9
2023-05-20T21:18:04.266Z,14.9
2023-05-20T21:28:05.319Z,14.8
2023-05-20T21:38:06.460Z,14.6
2023-05-20T21:48:07.929Z,14.4
2023-05-20T21:58:09.870Z,14.2
2023-05-20T22:08:11.525Z,14.2
2023-05-20T22:18:12.891Z,14
2023-05-20T22:28:13.936Z,13.8
2023-05-20T22:38:15.553Z,13.6
2023-05-20T22:48:17.618Z,13.5
2023-05-20T22:58:18.929Z,13.5
2023-05-20T23:08:20.921Z,13.3
2023-05-20T23:18:22.146Z,13.3
2023-05-20T23:28:23.943Z,13
2023-05-20T23:38:25.858Z,12.8
2023-05-20T23:48:27.309Z,12.7
2023-05-20T23:58:29.199Z,12.6
